Time;durP1;ratioP1;P1;durP2;ratioP2;P2;SDS_P1;SDS_P2;PMS_P1;PMS_P2;Temp;Humidity;BMP_temperature;BMP_pressure;BME280_temperature;BME280_humidity;BME280_pressure;Samples;Min_cycle;Max_cycle;Signal;HPM_P1;HPM_P2
2022/06/11 00:00:39;;;;;;;;;;;;;;;18.18;63.30;100250.53;5070455;28;1235;-60
2022/06/11 00:03:04;;;;;;;;;;;;;;;17.93;63.90;100246.22;5070155;28;1360;-61
2022/06/11 00:05:30;;;;;;;;;;;;;;;17.71;64.56;100250.31;5065432;28;929;-61
2022/06/11 00:07:57;;;;;;;;;;;;;;;17.72;64.64;100257.44;5070740;28;1063;-61
2022/06/11 00:10:22;;;;;;;;;;;;;;;18.21;63.09;100258.19;5069418;28;1111;-62
2022/06/11 00:12:48;;;;;;;;;;;;;;;18.06;63.58;100256.50;5061521;28;1000;-62
2022/06/11 00:15:13;;;;;;;;;;;;;;;17.92;64.09;100258.31;5072698;28;1906;-60
2022/06/11 00:17:39;;;;;;;;;;;;;;;17.88;64.32;100259.97;5069172;28;1130;-60
2022/06/11 00:20:04;;;;;;;;;;;;;;;17.85;64.64;100260.59;5062558;28;1123;-61
2022/06/11 00:22:30;;;;;;;;;;;;;;;18.15;63.55;100261.34;5072963;28;1008;-61
2022/06/11 00:24:55;;;;;;;;;;;;;;;18.41;62.71;100267.25;5072647;28;1059;-60
2022/06/11 00:27:21;;;;;;;;;;;;;;;18.01;64.01;100264.00;5074624;28;1020;-60
2022/06/11 00:29:46;;;;;;;;;;;;;;;17.96;64.21;100256.63;5048045;28;1575;-63
2022/06/11 00:32:13;;;;;;;;;;;;;;;17.76;65.05;100269.47;5065803;28;949;-61
2022/06/11 00:34:38;;;;;;;;;;;;;;;17.89;64.46;100256.13;5073350;28;1000;-59
2022/06/11 00:37:04;;;;;;;;;;;;;;;18.21;63.51;100252.69;5069910;28;1909;-61
2022/06/11 00:39:30;;;;;;;;;;;;;;;18.33;62.94;100244.00;5068596;28;1040;-64
2022/06/11 00:41:58;;;;;;;;;;;;;;;18.24;63.34;100256.78;5031277;28;1131;-61
2022/06/11 00:44:23;;;;;;;;;;;;;;;17.92;64.18;100250.91;5069461;28;1063;-62
2022/06/11 00:46:52;;;;;;;;;;;;;;;17.90;64.57;100252.28;5079120;28;1228;-62
2022/06/11 00:49:24;;;;;;;;;;;;;;;18.04;64.08;100255.16;5073223;28;1082;-61
2022/06/11 00:51:55;;;;;;;;;;;;;;;18.16;63.74;100254.69;5070554;28;1020;-61
2022/06/11 00:54:21;;;;;;;;;;;;;;;17.88;64.72;100248.97;5055204;28;1036;-63
2022/06/11 00:56:48;;;;;;;;;;;;;;;17.79;64.98;100271.66;5052702;28;1975;-61
2022/06/11 00:59:16;;;;;;;;;;;;;;;17.75;65.07;100251.38;5057987;28;1138;-61
2022/06/11 01:01:41;;;;;;;;;;;;;;;18.03;64.35;100259.00;5076721;28;1067;-61
2022/06/11 01:04:25;;;;;;;;;;;;;;;18.02;63.91;100255.44;5056538;28;1175;-63
2022/06/11 01:06:54;;;;;;;;;;;;;;;17.71;64.91;100254.97;5077714;28;1134;-61
2022/06/11 01:09:24;;;;;;;;;;;;;;;17.48;65.62;100262.94;5052950;28;1135;-61
2022/06/11 01:11:56;;;;;;;;;;;;;;;17.47;65.66;100263.25;5055012;28;893;-61
2022/06/11 01:14:21;;;;;;;;;;;;;;;17.59;65.24;100263.66;5066680;28;1031;-61
2022/06/11 01:17:07;;;;;;;;;;;;;;;18.10;63.38;100251.19;5074956;28;1921;-61
2022/06/11 01:19:38;;;;;;;;;;;;;;;17.90;63.78;100252.28;5074049;28;1451;-62
2022/06/11 01:22:10;;;;;;;;;;;;;;;17.49;64.77;100252.75;5071725;28;969;-61
2022/06/11 01:24:55;;;;;;;;;;;;;;;17.32;65.62;100259.56;5059966;28;1186;-62
2022/06/11 01:27:39;;;;;;;;;;;;;;;17.75;64.65;100262.38;5054412;28;1077;-62
2022/06/11 01:30:23;;;;;;;;;;;;;;;17.94;63.93;100254.16;5065665;28;1095;-61
2022/06/11 01:32:56;;;;;;;;;;;;;;;17.60;65.00;100249.63;5047983;28;1012;-61
2022/06/11 01:35:39;;;;;;;;;;;;;;;17.25;65.53;100246.16;5053623;28;1898;-61
2022/06/11 01:38:07;;;;;;;;;;;;;;;17.38;66.01;100252.06;5073716;28;1047;-63
2022/06/11 01:40:47;;;;;;;;;;;;;;;17.76;64.42;100244.72;5053995;28;1324;-64
2022/06/11 01:43:28;;;;;;;;;;;;;;;17.77;64.68;100248.31;5052319;28;1103;-62
2022/06/11 01:45:53;;;;;;;;;;;;;;;17.67;64.80;100259.44;5069007;28;985;-62
2022/06/11 01:48:21;;;;;;;;;;;;;;;17.83;64.45;100263.63;5072784;28;1163;-62
2022/06/11 01:50:50;;;;;;;;;;;;;;;18.08;63.45;100270.75;5077467;28;965;-61
2022/06/11 01:53:17;;;;;;;;;;;;;;;17.76;64.43;100265.94;5066980;28;1381;-62
2022/06/11 01:55:55;;;;;;;;;;;;;;;17.31;65.86;100260.66;5068904;28;1973;-62
2022/06/11 01:58:40;;;;;;;;;;;;;;;17.40;66.00;100247.09;5054040;28;1005;-62
2022/06/11 02:01:05;;;;;;;;;;;;;;;17.98;63.88;100226.06;5040720;28;1009;-61
2022/06/11 02:03:37;;;;;;;;;;;;;;;17.88;64.19;100232.47;5069696;28;1091;-61
2022/06/11 02:06:24;;;;;;;;;;;;;;;17.90;64.25;100235.78;5075228;28;1012;-62
2022/06/11 02:09:06;;;;;;;;;;;;;;;17.90;64.14;100233.81;5075503;28;1143;-61
2022/06/11 02:11:42;;;;;;;;;;;;;;;18.03;64.10;100251.56;5059719;28;1190;-62
2022/06/11 02:14:16;;;;;;;;;;;;;;;18.15;63.50;100245.63;5041859;28;1037;-61
2022/06/11 02:16:54;;;;;;;;;;;;;;;17.83;64.42;100246.31;5070929;28;1984;-63
2022/06/11 02:19:24;;;;;;;;;;;;;;;17.58;65.61;100251.00;5076145;28;1166;-60
2022/06/11 02:21:52;;;;;;;;;;;;;;;17.86;64.84;100245.72;5065277;28;1040;-63
2022/06/11 02:24:18;;;;;;;;;;;;;;;18.12;63.45;100241.53;5052776;28;1192;-63
2022/06/11 02:26:45;;;;;;;;;;;;;;;17.81;64.50;100237.53;5053446;28;1195;-63
2022/06/11 02:29:11;;;;;;;;;;;;;;;17.66;65.12;100239.38;5066271;28;996;-63
2022/06/11 02:31:41;;;;;;;;;;;;;;;17.78;64.81;100237.03;5049649;28;1146;-63
2022/06/11 02:34:07;;;;;;;;;;;;;;;18.13;63.39;100237.69;5049708;28;1075;-63
2022/06/11 02:36:33;;;;;;;;;;;;;;;17.87;64.51;100230.88;5053427;28;1914;-63
2022/06/11 02:38:59;;;;;;;;;;;;;;;17.52;65.32;100235.69;5051673;28;1294;-63
2022/06/11 02:41:26;;;;;;;;;;;;;;;17.32;66.05;100232.06;5064987;28;1118;-63
2022/06/11 02:43:51;;;;;;;;;;;;;;;17.95;64.06;100241.25;5075607;28;999;-62
2022/06/11 02:49:01;;;;;;;;;;;;;;;17.72;64.78;100256.63;5059409;28;1463;-63
2022/06/11 02:51:27;;;;;;;;;;;;;;;17.84;64.65;100254.28;5069623;28;929;-59
2022/06/11 02:53:52;;;;;;;;;;;;;;;17.88;64.49;100254.50;5068121;28;1138;-60
2022/06/11 02:56:18;;;;;;;;;;;;;;;18.02;64.07;100260.94;5072816;28;1979;-60
2022/06/11 02:58:43;;;;;;;;;;;;;;;18.28;63.13;100269.63;5071358;28;1144;-60
2022/06/11 03:01:09;;;;;;;;;;;;;;;18.15;63.61;100264.09;5068375;28;987;-61
2022/06/11 03:03:35;;;;;;;;;;;;;;;17.74;65.02;100265.38;5065785;28;1216;-61
2022/06/11 03:06:00;;;;;;;;;;;;;;;17.74;64.77;100266.22;5073532;28;1027;-61
2022/06/11 03:08:26;;;;;;;;;;;;;;;17.75;64.91;100267.88;5072151;28;1079;-61
2022/06/11 03:10:54;;;;;;;;;;;;;;;18.16;63.74;100258.28;5072704;28;1350;-60
2022/06/11 03:13:20;;;;;;;;;;;;;;;18.08;63.75;100264.44;5068171;28;1063;-61
2022/06/11 03:15:46;;;;;;;;;;;;;;;17.85;64.57;100268.84;5068287;28;1975;-60
2022/06/11 03:18:12;;;;;;;;;;;;;;;17.58;65.27;100271.06;5075507;28;1128;-61
2022/06/11 03:20:37;;;;;;;;;;;;;;;17.66;65.06;100275.13;5070349;28;965;-61
2022/06/11 03:23:02;;;;;;;;;;;;;;;17.90;64.19;100286.09;5067061;28;960;-59
2022/06/11 03:25:28;;;;;;;;;;;;;;;18.38;62.87;100284.38;5070281;28;1050;-61
2022/06/11 03:27:55;;;;;;;;;;;;;;;18.18;63.36;100288.25;5067499;28;1071;-60
2022/06/11 03:30:21;;;;;;;;;;;;;;;17.71;65.22;100299.81;5066457;28;993;-61
2022/06/11 03:32:46;;;;;;;;;;;;;;;17.64;65.56;100304.81;5073280;28;885;-59
2022/06/11 03:35:12;;;;;;;;;;;;;;;18.00;64.14;100296.16;5067828;28;1894;-59
2022/06/11 03:37:37;;;;;;;;;;;;;;;18.33;63.13;100307.31;5074531;28;1052;-58
2022/06/11 03:40:03;;;;;;;;;;;;;;;17.99;64.31;100305.53;5074777;28;1142;-59
2022/06/11 03:42:29;;;;;;;;;;;;;;;17.67;65.38;100304.25;5060250;28;850;-61
2022/06/11 03:44:54;;;;;;;;;;;;;;;17.64;65.61;100313.06;5069090;28;1425;-59
2022/06/11 03:47:20;;;;;;;;;;;;;;;17.56;66.08;100302.75;5067081;28;1166;-60
2022/06/11 03:49:46;;;;;;;;;;;;;;;18.02;64.16;100306.88;5069345;28;1233;-61
2022/06/11 03:52:11;;;;;;;;;;;;;;;18.27;63.54;100313.97;5069319;28;1171;-60
2022/06/11 03:54:37;;;;;;;;;;;;;;;17.92;64.62;100319.66;5067761;28;1229;-64
2022/06/11 03:57:03;;;;;;;;;;;;;;;17.68;65.23;100316.06;5072852;28;1988;-64
2022/06/11 03:59:29;;;;;;;;;;;;;;;17.73;65.29;100319.56;5072742;28;1198;-65
2022/06/11 04:01:54;;;;;;;;;;;;;;;17.99;64.31;100322.03;5062601;28;1092;-70
2022/06/11 04:04:20;;;;;;;;;;;;;;;18.23;63.41;100312.94;5062930;28;1032;-68
2022/06/11 04:06:47;;;;;;;;;;;;;;;18.17;63.86;100327.88;5062217;28;1146;-65
2022/06/11 04:09:17;;;;;;;;;;;;;;;17.88;64.60;100332.34;5062487;28;1087;-64
2022/06/11 04:11:43;;;;;;;;;;;;;;;17.82;64.98;100338.19;5069346;28;1115;-65
2022/06/11 04:14:08;;;;;;;;;;;;;;;17.75;65.44;100347.63;5042020;28;1047;-64
2022/06/11 04:16:35;;;;;;;;;;;;;;;17.99;65.05;100344.03;5073047;28;2225;-65
2022/06/11 04:19:02;;;;;;;;;;;;;;;18.57;63.70;100361.47;5060648;28;985;-66
2022/06/11 04:21:28;;;;;;;;;;;;;;;18.20;64.96;100366.66;5063094;28;1286;-65
2022/06/11 04:23:54;;;;;;;;;;;;;;;17.83;65.74;100357.13;5062601;28;937;-71
2022/06/11 04:26:22;;;;;;;;;;;;;;;17.70;66.49;100361.41;5063436;28;1048;-65
2022/06/11 04:28:47;;;;;;;;;;;;;;;17.76;66.71;100373.19;5065174;28;1016;-67
2022/06/11 04:31:15;;;;;;;;;;;;;;;17.79;66.90;100365.16;5072182;28;1019;-66
2022/06/11 04:33:41;;;;;;;;;;;;;;;18.08;66.70;100375.31;5068161;28;1099;-65
2022/06/11 04:36:07;;;;;;;;;;;;;;;18.36;65.69;100364.50;5074057;28;1966;-67
2022/06/11 04:38:32;;;;;;;;;;;;;;;18.66;64.71;100353.38;5057993;28;1149;-63
2022/06/11 04:40:58;;;;;;;;;;;;;;;18.54;65.45;100360.13;5067188;28;994;-66
2022/06/11 04:43:23;;;;;;;;;;;;;;;18.41;66.33;100356.19;5066638;28;1031;-65
2022/06/11 04:45:49;;;;;;;;;;;;;;;18.23;66.44;100376.22;5065845;28;994;-67
2022/06/11 04:48:15;;;;;;;;;;;;;;;17.79;66.51;100383.59;5066267;28;1039;-67
2022/06/11 04:50:40;;;;;;;;;;;;;;;17.73;65.58;100377.31;5048550;28;1206;-66
2022/06/11 04:53:05;;;;;;;;;;;;;;;17.82;66.93;100393.19;5073708;28;1070;-68
2022/06/11 04:55:31;;;;;;;;;;;;;;;18.12;67.00;100390.13;5053143;28;1902;-67
2022/06/11 04:57:56;;;;;;;;;;;;;;;18.63;64.59;100385.91;5058081;28;997;-66
2022/06/11 05:00:23;;;;;;;;;;;;;;;18.27;65.05;100399.28;5066509;28;957;-65
2022/06/11 05:02:49;;;;;;;;;;;;;;;17.73;64.97;100402.06;5061793;28;1063;-70
2022/06/11 05:05:14;;;;;;;;;;;;;;;17.43;63.96;100401.25;5070201;28;1581;-63
2022/06/11 05:07:40;;;;;;;;;;;;;;;17.68;60.22;100404.06;5067343;28;1083;-64
2022/06/11 05:10:06;;;;;;;;;;;;;;;17.97;57.23;100406.81;5070692;28;1008;-64
2022/06/11 05:12:31;;;;;;;;;;;;;;;17.51;56.87;100412.75;5067647;28;1115;-64
2022/06/11 05:14:57;;;;;;;;;;;;;;;17.38;55.70;100414.22;5056357;28;1202;-65
2022/06/11 05:17:22;;;;;;;;;;;;;;;17.48;54.57;100416.88;5062414;28;1914;-67
2022/06/11 05:19:48;;;;;;;;;;;;;;;17.63;53.98;100402.19;5073798;28;1206;-64
2022/06/11 05:22:13;;;;;;;;;;;;;;;17.52;55.58;100415.19;5074548;28;1170;-63
2022/06/11 05:24:39;;;;;;;;;;;;;;;17.72;57.33;100405.91;5072069;28;878;-67
2022/06/11 05:27:06;;;;;;;;;;;;;;;18.10;58.85;100403.38;5065705;28;1035;-62
2022/06/11 05:29:36;;;;;;;;;;;;;;;18.12;61.38;100398.38;5071132;28;1222;-63
2022/06/11 05:32:01;;;;;;;;;;;;;;;18.07;63.80;100411.38;5072254;28;1075;-65
2022/06/11 05:34:27;;;;;;;;;;;;;;;18.05;65.06;100414.41;5069012;28;1095;-66
2022/06/11 05:36:52;;;;;;;;;;;;;;;18.18;65.83;100423.09;5077265;28;1906;-64
2022/06/11 05:39:18;;;;;;;;;;;;;;;18.15;66.44;100424.50;5069958;28;1024;-62
2022/06/11 05:41:43;;;;;;;;;;;;;;;18.34;66.49;100421.81;5068988;28;1174;-64
2022/06/11 05:44:09;;;;;;;;;;;;;;;18.87;65.16;100422.75;5062549;28;1072;-66
2022/06/11 05:46:34;;;;;;;;;;;;;;;18.53;66.59;100423.75;5070404;28;1276;-63
2022/06/11 05:49:01;;;;;;;;;;;;;;;18.26;66.93;100433.47;5071334;28;1154;-64
2022/06/11 05:51:36;;;;;;;;;;;;;;;18.00;64.76;100432.91;5072020;28;1201;-66
2022/06/11 05:54:03;;;;;;;;;;;;;;;17.60;63.93;100424.75;5065022;28;1055;-65
2022/06/11 05:56:28;;;;;;;;;;;;;;;17.79;66.20;100428.44;5063754;28;1969;-67
2022/06/11 05:58:58;;;;;;;;;;;;;;;18.45;68.45;100439.00;5069343;28;1008;-65
2022/06/11 06:01:24;;;;;;;;;;;;;;;18.55;68.86;100424.28;5043625;28;989;-68
2022/06/11 06:03:50;;;;;;;;;;;;;;;18.53;68.09;100432.84;5053372;28;1254;-67
2022/06/11 06:06:16;;;;;;;;;;;;;;;18.27;67.10;100422.16;5073133;28;1019;-66
2022/06/11 06:08:41;;;;;;;;;;;;;;;17.79;65.83;100422.94;5067464;28;1029;-67
2022/06/11 06:11:07;;;;;;;;;;;;;;;17.44;63.74;100422.13;5069825;28;1039;-67
2022/06/11 06:13:47;;;;;;;;;;;;;;;17.47;66.71;100423.47;5063438;28;1020;-68
2022/06/11 06:16:16;;;;;;;;;;;;;;;17.76;65.53;100434.47;5070674;28;1906;-68
2022/06/11 06:18:41;;;;;;;;;;;;;;;17.87;62.18;100429.72;5064712;28;989;-67
2022/06/11 06:21:07;;;;;;;;;;;;;;;17.63;59.52;100429.69;5065396;28;1116;-66
2022/06/11 06:23:32;;;;;;;;;;;;;;;17.58;57.08;100432.47;5074340;28;1070;-66
2022/06/11 06:25:58;;;;;;;;;;;;;;;17.50;55.38;100442.16;5068009;28;1142;-67
2022/06/11 06:28:23;;;;;;;;;;;;;;;17.22;54.79;100430.00;5069277;28;917;-68
2022/06/11 06:30:49;;;;;;;;;;;;;;;17.21;53.29;100439.38;5064343;28;969;-65
2022/06/11 06:33:15;;;;;;;;;;;;;;;17.51;51.61;100434.72;5067594;28;1047;-68
2022/06/11 06:35:40;;;;;;;;;;;;;;;17.50;52.41;100435.81;5070800;28;1992;-66
2022/06/11 06:38:06;;;;;;;;;;;;;;;17.41;53.45;100432.88;5067601;28;1012;-66
2022/06/11 06:40:32;;;;;;;;;;;;;;;17.61;53.92;100426.38;5068957;28;1178;-67
2022/06/11 06:42:57;;;;;;;;;;;;;;;17.55;55.33;100435.78;5076793;28;1067;-67
2022/06/11 06:45:23;;;;;;;;;;;;;;;17.56;56.19;100441.00;5068237;28;964;-67
2022/06/11 06:47:48;;;;;;;;;;;;;;;17.83;55.45;100436.91;5069312;28;1036;-66
2022/06/11 06:50:14;;;;;;;;;;;;;;;17.46;57.17;100435.59;5070391;28;1283;-66
2022/06/11 06:52:39;;;;;;;;;;;;;;;17.45;57.38;100437.50;5064025;28;1300;-66
2022/06/11 06:55:05;;;;;;;;;;;;;;;17.67;57.23;100430.75;5065905;28;1202;-67
2022/06/11 06:57:30;;;;;;;;;;;;;;;17.85;56.39;100436.59;5071490;28;1985;-65
2022/06/11 06:59:56;;;;;;;;;;;;;;;17.80;57.70;100440.22;5069109;28;1150;-65
2022/06/11 07:02:21;;;;;;;;;;;;;;;17.61;58.98;100437.38;5075208;28;1110;-66
2022/06/11 07:04:47;;;;;;;;;;;;;;;17.45;59.44;100437.50;5064387;28;1077;-62
2022/06/11 07:07:15;;;;;;;;;;;;;;;17.86;58.36;100443.75;5069082;28;931;-63
2022/06/11 07:09:41;;;;;;;;;;;;;;;17.99;58.13;100448.59;5070546;28;1012;-65
2022/06/11 07:12:06;;;;;;;;;;;;;;;17.50;59.50;100441.31;5075426;28;1108;-64
2022/06/11 07:14:32;;;;;;;;;;;;;;;17.35;59.97;100445.00;5044804;28;1492;-67
2022/06/11 07:16:58;;;;;;;;;;;;;;;17.61;58.66;100442.88;5066203;28;1976;-67
2022/06/11 07:19:28;;;;;;;;;;;;;;;17.86;57.75;100439.06;5058155;28;1056;-66
2022/06/11 07:21:54;;;;;;;;;;;;;;;17.61;57.97;100442.88;5074729;28;1103;-65
2022/06/11 07:24:21;;;;;;;;;;;;;;;17.34;58.67;100446.13;5075632;28;1008;-67
2022/06/11 07:26:49;;;;;;;;;;;;;;;17.39;58.14;100449.66;5056954;28;1016;-67
2022/06/11 07:29:16;;;;;;;;;;;;;;;17.94;57.39;100445.91;5046011;28;981;-67
2022/06/11 07:31:42;;;;;;;;;;;;;;;17.92;58.87;100442.59;5045067;28;989;-66
2022/06/11 07:34:07;;;;;;;;;;;;;;;17.80;60.56;100456.75;5051845;28;1094;-66
2022/06/11 07:36:33;;;;;;;;;;;;;;;17.62;62.47;100461.03;5064419;28;1909;-66
2022/06/11 07:38:58;;;;;;;;;;;;;;;17.69;63.18;100446.94;5070233;28;996;-66
2022/06/11 07:41:24;;;;;;;;;;;;;;;18.08;62.83;100452.34;5054499;28;1024;-67
2022/06/11 07:43:49;;;;;;;;;;;;;;;18.37;62.37;100456.16;5060630;28;1118;-66
2022/06/11 07:46:15;;;;;;;;;;;;;;;18.15;64.10;100460.28;5072385;28;1354;-65
2022/06/11 07:48:40;;;;;;;;;;;;;;;18.12;64.51;100453.41;5049428;28;1004;-67
2022/06/11 07:51:06;;;;;;;;;;;;;;;18.26;64.58;100452.72;5066202;28;968;-67
2022/06/11 07:53:32;;;;;;;;;;;;;;;18.59;63.72;100452.88;5063416;28;1064;-67
2022/06/11 07:55:57;;;;;;;;;;;;;;;18.73;63.81;100453.78;5065172;28;1897;-65
2022/06/11 07:58:24;;;;;;;;;;;;;;;18.39;65.58;100454.75;5062545;28;1110;-66
2022/06/11 08:00:50;;;;;;;;;;;;;;;17.87;66.15;100450.91;5062010;28;1040;-66
2022/06/11 08:03:16;;;;;;;;;;;;;;;17.68;64.96;100451.59;5070393;28;1098;-66
2022/06/11 08:05:41;;;;;;;;;;;;;;;17.50;64.12;100441.31;5067064;28;999;-66
2022/06/11 08:08:07;;;;;;;;;;;;;;;17.82;61.04;100440.75;5072044;28;1012;-66
2022/06/11 08:10:33;;;;;;;;;;;;;;;18.14;58.27;100436.59;5065259;28;1174;-68
2022/06/11 08:12:58;;;;;;;;;;;;;;;17.77;58.64;100446.31;5068515;28;1201;-66
2022/06/11 08:15:24;;;;;;;;;;;;;;;17.43;58.62;100438.91;5069862;28;1906;-68
2022/06/11 08:17:49;;;;;;;;;;;;;;;17.65;57.21;100434.88;5063316;28;1235;-66
2022/06/11 08:20:16;;;;;;;;;;;;;;;17.62;56.78;100431.59;5062618;28;1250;-66
2022/06/11 08:22:41;;;;;;;;;;;;;;;17.78;55.80;100431.44;5064676;28;1345;-66
2022/06/11 08:25:07;;;;;;;;;;;;;;;17.71;55.65;100431.81;5075000;28;1025;-66
2022/06/11 08:27:33;;;;;;;;;;;;;;;17.50;55.94;100430.34;5062763;28;977;-66
2022/06/11 08:29:58;;;;;;;;;;;;;;;17.79;54.70;100433.94;5061019;28;1027;-67
2022/06/11 08:32:23;;;;;;;;;;;;;;;17.84;54.42;100423.97;5049244;28;1127;-67
2022/06/11 08:34:49;;;;;;;;;;;;;;;17.61;55.05;100423.63;5068319;28;1051;-67
2022/06/11 08:37:14;;;;;;;;;;;;;;;17.49;54.91;100423.19;5047185;28;1902;-66
2022/06/11 08:39:40;;;;;;;;;;;;;;;17.56;54.66;100413.50;5060775;28;1066;-65
2022/06/11 08:42:07;;;;;;;;;;;;;;;17.73;54.26;100429.56;5071724;28;1019;-67
2022/06/11 08:44:33;;;;;;;;;;;;;;;17.47;54.63;100408.91;5068479;28;1225;-65
2022/06/11 08:47:04;;;;;;;;;;;;;;;17.44;54.64;100422.13;5066568;28;1171;-67
2022/06/11 08:49:30;;;;;;;;;;;;;;;17.76;54.01;100425.44;5061685;28;914;-67
2022/06/11 08:52:00;;;;;;;;;;;;;;;17.87;53.57;100421.47;5070910;28;1004;-66
2022/06/11 08:54:30;;;;;;;;;;;;;;;17.31;54.88;100420.03;5055549;28;1059;-66
2022/06/11 08:57:02;;;;;;;;;;;;;;;17.53;54.36;100424.25;5054422;28;1986;-66
2022/06/11 08:59:30;;;;;;;;;;;;;;;17.93;53.07;100425.00;5067815;28;1088;-66
2022/06/11 09:02:11;;;;;;;;;;;;;;;17.82;53.47;100417.94;5063287;28;1277;-67
2022/06/11 09:04:40;;;;;;;;;;;;;;;17.59;53.72;100410.19;5073657;28;1106;-64
2022/06/11 09:07:32;;;;;;;;;;;;;;;17.83;53.19;100411.34;5064886;28;1000;-66
2022/06/11 09:10:19;;;;;;;;;;;;;;;17.63;53.67;100407.69;5047634;28;1095;-65
2022/06/11 09:12:51;;;;;;;;;;;;;;;17.48;54.03;100413.31;5049905;28;1122;-66
2022/06/11 09:15:18;;;;;;;;;;;;;;;17.68;53.62;100410.34;5066684;28;1020;-65
2022/06/11 09:18:02;;;;;;;;;;;;;;;17.71;53.98;100409.81;5054000;28;1163;-66
2022/06/11 09:20:31;;;;;;;;;;;;;;;18.01;53.33;100407.06;5054118;28;1282;-62
2022/06/11 09:23:15;;;;;;;;;;;;;;;17.69;54.48;100412.00;5065604;28;1055;-63
2022/06/11 09:25:40;;;;;;;;;;;;;;;17.43;55.42;100406.75;5074833;28;1000;-62
2022/06/11 09:28:06;;;;;;;;;;;;;;;17.77;54.63;100405.88;5068881;28;1052;-65
2022/06/11 09:30:46;;;;;;;;;;;;;;;17.86;54.54;100399.75;5068372;28;1233;-67
2022/06/11 09:33:41;;;;;;;;;;;;;;;17.59;55.56;100396.44;5055333;28;1412;-66
2022/06/11 09:36:09;;;;;;;;;;;;;;;17.52;55.57;100400.63;5053981;28;1906;-66
2022/06/11 09:38:54;;;;;;;;;;;;;;;17.87;54.67;100384.91;5049635;28;1266;-66
2022/06/11 09:41:25;;;;;;;;;;;;;;;17.76;54.99;100384.97;5075536;28;1111;-65
2022/06/11 09:43:54;;;;;;;;;;;;;;;17.59;55.54;100384.63;5064171;28;1032;-67
2022/06/11 09:46:23;;;;;;;;;;;;;;;17.55;55.71;100380.81;5071591;28;1218;-67
2022/06/11 09:49:05;;;;;;;;;;;;;;;17.89;55.95;100389.00;5047532;28;1383;-68
2022/06/11 09:51:36;;;;;;;;;;;;;;;17.98;57.55;100386.44;5070495;28;1090;-66
2022/06/11 09:54:11;;;;;;;;;;;;;;;17.84;59.88;100379.94;5049865;28;1270;-62
2022/06/11 09:56:39;;;;;;;;;;;;;;;18.28;60.38;100371.47;5045230;28;1909;-62
2022/06/11 09:59:17;;;;;;;;;;;;;;;18.63;60.70;100368.53;5067311;28;1178;-65
2022/06/11 10:01:48;;;;;;;;;;;;;;;18.69;61.67;100367.38;5060826;28;1165;-65
2022/06/11 10:04:13;;;;;;;;;;;;;;;18.49;62.15;100356.63;5047406;28;876;-65
2022/06/11 10:06:47;;;;;;;;;;;;;;;17.90;60.41;100359.56;5043268;28;1072;-63
2022/06/11 10:09:15;;;;;;;;;;;;;;;17.17;58.37;100355.88;5072090;28;1149;-63
2022/06/11 10:11:54;;;;;;;;;;;;;;;17.23;53.51;100343.72;5050660;28;1033;-63
2022/06/11 10:14:28;;;;;;;;;;;;;;;17.36;49.31;100336.72;5047573;28;1238;-64
2022/06/11 10:16:57;;;;;;;;;;;;;;;17.30;46.70;100338.72;5069483;28;1925;-63
2022/06/11 10:19:28;;;;;;;;;;;;;;;17.33;45.49;100332.63;5069002;28;1312;-63
2022/06/11 10:22:17;;;;;;;;;;;;;;;17.48;46.73;100328.09;5069177;28;1269;-63
2022/06/11 10:24:47;;;;;;;;;;;;;;;17.28;49.54;100321.69;5062811;28;1557;-63
2022/06/11 10:27:13;;;;;;;;;;;;;;;17.48;51.34;100325.38;5073995;28;1055;-63
2022/06/11 10:29:46;;;;;;;;;;;;;;;17.75;53.44;100320.13;5070121;28;1171;-65
2022/06/11 10:32:17;;;;;;;;;;;;;;;18.06;55.83;100317.03;5050240;28;1207;-65
2022/06/11 10:34:44;;;;;;;;;;;;;;;18.34;57.36;100317.22;5059223;28;1244;-66
2022/06/11 10:37:16;;;;;;;;;;;;;;;18.49;58.98;100320.84;5057778;28;1902;-65
2022/06/11 10:39:49;;;;;;;;;;;;;;;18.16;61.61;100315.22;5036854;28;922;-65
2022/06/11 10:42:17;;;;;;;;;;;;;;;17.82;63.84;100317.00;5038211;28;1204;-65
2022/06/11 10:44:49;;;;;;;;;;;;;;;17.88;64.59;100317.75;5057311;28;1011;-65
2022/06/11 10:47:17;;;;;;;;;;;;;;;18.06;64.69;100314.28;5051527;28;1190;-62
2022/06/11 10:49:43;;;;;;;;;;;;;;;18.40;64.30;100316.00;5056235;28;919;-66
2022/06/11 10:52:16;;;;;;;;;;;;;;;18.75;63.43;100322.09;5040134;28;1181;-66
2022/06/11 10:54:41;;;;;;;;;;;;;;;18.95;63.64;100309.16;5039495;28;1223;-67
2022/06/11 10:57:10;;;;;;;;;;;;;;;18.97;63.30;100302.22;5059556;28;1902;-65
2022/06/11 10:59:36;;;;;;;;;;;;;;;18.98;62.88;100303.88;5040067;28;1037;-65
2022/06/11 11:02:20;;;;;;;;;;;;;;;18.68;59.95;100305.13;5055962;28;957;-62
2022/06/11 11:05:00;;;;;;;;;;;;;;;18.56;56.15;100302.81;5062465;28;865;-62
2022/06/11 11:07:26;;;;;;;;;;;;;;;18.22;53.52;100294.81;5061943;28;937;-62
2022/06/11 11:09:58;;;;;;;;;;;;;;;18.09;50.85;100288.06;5056565;28;883;-62
2022/06/11 11:12:27;;;;;;;;;;;;;;;17.60;50.22;100292.78;5065617;28;832;-65
2022/06/11 11:14:57;;;;;;;;;;;;;;;17.40;49.66;100294.66;5036461;28;1300;-66
2022/06/11 11:17:24;;;;;;;;;;;;;;;17.33;48.51;100285.91;5059820;28;1910;-64
2022/06/11 11:20:29;;;;;;;;;;;;;;;17.33;47.15;100293.34;5038511;28;897;-65
2022/06/11 11:22:36;;;;;;;;;;;;;;;17.31;46.38;100296.38;5044675;28;1434;-62
2022/06/11 11:25:02;;;;;;;;;;;;;;;17.18;45.91;100297.06;5045526;28;1139;-68
2022/06/11 11:27:28;;;;;;;;;;;;;;;16.74;45.48;100288.59;5041310;28;942;-66
2022/06/11 11:29:57;;;;;;;;;;;;;;;17.40;48.47;100296.56;5060633;28;1152;-64
2022/06/11 11:32:29;;;;;;;;;;;;;;;17.68;52.41;100294.06;5040223;28;854;-71
2022/06/11 11:34:54;;;;;;;;;;;;;;;17.62;56.41;100290.56;5060193;28;1210;-66
2022/06/11 11:37:20;;;;;;;;;;;;;;;18.10;57.38;100284.22;5057294;28;2242;-68
2022/06/11 11:39:56;;;;;;;;;;;;;;;18.41;58.71;100287.38;5055414;28;851;-64
2022/06/11 11:42:22;;;;;;;;;;;;;;;18.13;61.18;100300.97;5064766;28;966;-64
2022/06/11 11:44:51;;;;;;;;;;;;;;;18.03;62.21;100298.31;5059947;28;1148;-67
2022/06/11 11:47:25;;;;;;;;;;;;;;;17.79;64.16;100306.59;5062900;28;1218;-67
2022/06/11 11:49:55;;;;;;;;;;;;;;;18.02;64.34;100282.97;5049032;28;1032;-67
2022/06/11 11:52:21;;;;;;;;;;;;;;;18.02;64.78;100306.88;5066784;28;1270;-65
2022/06/11 11:54:57;;;;;;;;;;;;;;;18.39;64.37;100297.84;5066073;28;976;-65
2022/06/11 11:57:23;;;;;;;;;;;;;;;18.59;64.02;100299.50;5066365;28;1970;-66
2022/06/11 12:00:12;;;;;;;;;;;;;;;18.35;65.13;100299.56;5040506;28;1095;-67
2022/06/11 12:02:45;;;;;;;;;;;;;;;17.98;66.25;100300.31;5025432;28;1168;-66
2022/06/11 12:05:10;;;;;;;;;;;;;;;17.86;66.50;100296.03;5065488;28;1198;-66
2022/06/11 12:07:39;;;;;;;;;;;;;;;17.96;67.10;100300.63;5064130;28;1281;-67
2022/06/11 12:10:09;;;;;;;;;;;;;;;18.03;67.40;100289.25;5063093;28;1191;-67
2022/06/11 12:12:35;;;;;;;;;;;;;;;18.35;66.90;100284.97;5064248;28;1214;-66
2022/06/11 12:15:01;;;;;;;;;;;;;;;18.82;65.13;100280.41;5063394;28;1167;-67
2022/06/11 12:17:45;;;;;;;;;;;;;;;18.40;66.25;100282.97;5066902;28;1906;-66
2022/06/11 12:20:31;;;;;;;;;;;;;;;17.88;65.12;100271.81;5060742;28;1023;-67
2022/06/11 12:23:06;;;;;;;;;;;;;;;17.17;61.97;100267.97;5067857;28;989;-66
2022/06/11 12:25:36;;;;;;;;;;;;;;;17.33;63.32;100271.34;5065627;28;912;-66
2022/06/11 12:28:02;;;;;;;;;;;;;;;17.77;59.29;100276.63;5050667;28;977;-66
2022/06/11 12:30:27;;;;;;;;;;;;;;;17.61;57.19;100264.16;5043231;28;983;-66
2022/06/11 12:32:53;;;;;;;;;;;;;;;17.28;56.04;100262.06;5070619;28;1004;-66
2022/06/11 12:35:41;;;;;;;;;;;;;;;17.55;53.58;100251.59;5067115;28;1135;-65
2022/06/11 12:38:10;;;;;;;;;;;;;;;17.55;52.16;100252.41;5049359;28;1036;-64
2022/06/11 12:40:41;;;;;;;;;;;;;;;17.46;51.52;100237.69;5066804;28;1317;-66
2022/06/11 12:43:19;;;;;;;;;;;;;;;17.57;51.96;100243.88;5066660;28;1365;-66
2022/06/11 12:45:44;;;;;;;;;;;;;;;17.60;56.45;100237.81;5064934;28;1245;-67
2022/06/11 12:48:28;;;;;;;;;;;;;;;17.82;59.81;100236.44;5071946;28;1056;-65
2022/06/11 12:51:03;;;;;;;;;;;;;;;18.22;61.68;100237.00;5068819;28;1178;-65
2022/06/11 12:53:40;;;;;;;;;;;;;;;17.94;64.74;100231.34;5051149;28;1273;-65
2022/06/11 12:56:21;;;;;;;;;;;;;;;17.60;66.88;100227.63;5065957;28;1909;-64
2022/06/11 12:58:46;;;;;;;;;;;;;;;17.62;66.27;100225.38;5048571;28;1227;-65